Time;durP1;ratioP1;P1;durP2;ratioP2;P2;SDS_P1;SDS_P2;PMS_P1;PMS_P2;Temp;Humidity;BMP_temperature;BMP_pressure;BME280_temperature;BME280_humidity;BME280_pressure;Samples;Min_cycle;Max_cycle;Signal;HPM_P1;HPM_P2
2021/11/22 00:02:03;;;;;;;;;;;11.60;99.90;;;;;;5013381;28;20350;-77
2021/11/22 00:04:28;;;;;;;;;;;11.60;99.90;;;;;;5013500;28;20004;-77
2021/11/22 00:06:54;;;;;;;;;;;11.60;99.90;;;;;;5013121;28;20016;-76
2021/11/22 00:09:20;;;;;;;;;;;11.60;99.90;;;;;;5012915;28;19968;-76
2021/11/22 00:11:45;;;;;;;;;;;11.60;99.90;;;;;;5013765;28;20399;-77
2021/11/22 00:14:11;;;;;;;;;;;11.60;99.90;;;;;;5013789;28;20331;-77
2021/11/22 00:16:37;;;;;;;;;;;11.50;99.90;;;;;;5013011;28;19916;-76
2021/11/22 00:19:02;;;;;;;;;;;11.60;99.90;;;;;;5000197;28;19963;-77
2021/11/22 00:21:28;;;;;;;;;;;11.50;99.90;;;;;;5013198;28;19932;-77
2021/11/22 00:23:54;;;;;;;;;;;11.50;99.90;;;;;;5011970;28;20398;-77
2021/11/22 00:26:19;;;;;;;;;;;11.60;99.90;;;;;;5013540;28;20371;-77
2021/11/22 00:28:45;;;;;;;;;;;11.60;99.90;;;;;;5012680;28;19914;-77
2021/11/22 00:31:10;;;;;;;;;;;11.60;99.90;;;;;;5012899;28;19978;-76
2021/11/22 00:33:36;;;;;;;;;;;11.60;99.90;;;;;;5012579;28;20445;-77
2021/11/22 00:36:02;;;;;;;;;;;11.60;99.90;;;;;;5012765;28;19992;-77
2021/11/22 00:38:27;;;;;;;;;;;11.60;99.90;;;;;;5012727;28;19960;-78
2021/11/22 00:40:54;;;;;;;;;;;11.60;99.90;;;;;;5012511;28;19913;-77
2021/11/22 00:43:20;;;;;;;;;;;11.70;99.90;;;;;;5009790;28;19932;-76
2021/11/22 00:45:50;;;;;;;;;;;11.80;99.90;;;;;;5012631;28;20240;-76
2021/11/22 00:48:19;;;;;;;;;;;11.70;99.90;;;;;;5009691;28;20004;-77
2021/11/22 00:50:45;;;;;;;;;;;11.80;99.90;;;;;;5012215;28;20012;-77
2021/11/22 00:53:11;;;;;;;;;;;11.70;99.90;;;;;;4997689;28;19996;-79
2021/11/22 00:55:36;;;;;;;;;;;11.80;99.90;;;;;;5013336;28;20432;-77
2021/11/22 00:58:02;;;;;;;;;;;11.80;99.90;;;;;;5005013;28;19965;-75
2021/11/22 01:00:28;;;;;;;;;;;11.80;99.90;;;;;;4995397;28;20019;-77
2021/11/22 01:02:53;;;;;;;;;;;11.70;99.90;;;;;;5002111;28;19933;-78
2021/11/22 01:05:19;;;;;;;;;;;11.80;99.90;;;;;;5021116;28;19913;-77
2021/11/22 01:07:45;;;;;;;;;;;11.70;99.90;;;;;;5022907;28;19967;-77
2021/11/22 01:10:11;;;;;;;;;;;11.80;99.90;;;;;;5037710;28;19921;-77
2021/11/22 01:12:37;;;;;;;;;;;11.80;99.90;;;;;;5017647;28;20491;-77
2021/11/22 01:15:05;;;;;;;;;;;11.80;99.90;;;;;;5011403;28;20667;-77
2021/11/22 01:17:30;;;;;;;;;;;11.80;99.90;;;;;;5011574;28;19929;-77
2021/11/22 01:19:56;;;;;;;;;;;11.70;99.90;;;;;;5011292;28;19913;-77
2021/11/22 01:22:22;;;;;;;;;;;11.70;99.90;;;;;;5007554;28;19983;-77
2021/11/22 01:24:48;;;;;;;;;;;11.70;99.90;;;;;;5011951;28;19993;-77
2021/11/22 01:27:13;;;;;;;;;;;11.70;99.90;;;;;;5011563;28;20325;-77
2021/11/22 01:29:39;;;;;;;;;;;11.90;99.90;;;;;;5011500;28;19914;-77
2021/11/22 01:32:05;;;;;;;;;;;11.80;99.90;;;;;;5011404;28;19913;-76
2021/11/22 01:34:30;;;;;;;;;;;11.80;99.90;;;;;;5012649;28;19931;-76
2021/11/22 01:36:56;;;;;;;;;;;11.80;99.90;;;;;;5012204;28;19960;-76
2021/11/22 01:39:21;;;;;;;;;;;11.80;99.90;;;;;;5011236;28;19933;-76
2021/11/22 01:41:47;;;;;;;;;;;11.90;99.90;;;;;;5011510;28;19917;-76
2021/11/22 01:44:13;;;;;;;;;;;11.90;99.90;;;;;;5024354;28;20335;-77
2021/11/22 01:46:38;;;;;;;;;;;11.90;99.90;;;;;;5012266;28;19932;-76
2021/11/22 01:49:04;;;;;;;;;;;12.00;99.90;;;;;;5011717;28;19949;-77
2021/11/22 01:51:30;;;;;;;;;;;11.90;99.90;;;;;;5011629;28;19910;-77
2021/11/22 01:53:56;;;;;;;;;;;12.00;99.90;;;;;;5011601;28;20403;-77
2021/11/22 01:56:22;;;;;;;;;;;12.00;99.90;;;;;;5011483;28;19913;-78
2021/11/22 01:58:48;;;;;;;;;;;12.00;99.90;;;;;;5011699;28;20363;-77
2021/11/22 02:01:14;;;;;;;;;;;12.00;99.90;;;;;;5011428;28;19913;-77
2021/11/22 02:03:40;;;;;;;;;;;12.00;99.90;;;;;;5010649;28;20020;-78
2021/11/22 02:06:06;;;;;;;;;;;12.10;99.90;;;;;;5011903;28;20371;-78
2021/11/22 02:08:31;;;;;;;;;;;12.10;99.90;;;;;;5002008;28;19924;-78
2021/11/22 02:10:57;;;;;;;;;;;12.10;99.90;;;;;;5009912;28;19979;-77
2021/11/22 02:13:23;;;;;;;;;;;12.20;99.90;;;;;;5005940;28;20016;-76
2021/11/22 02:15:49;;;;;;;;;;;12.20;99.90;;;;;;5005509;28;20012;-77
2021/11/22 02:18:18;;;;;;;;;;;12.20;99.90;;;;;;5020713;28;19979;-76
2021/11/22 02:20:44;;;;;;;;;;;12.30;99.90;;;;;;5006720;28;20278;-77
2021/11/22 02:23:11;;;;;;;;;;;12.30;99.90;;;;;;5010576;28;19917;-77
2021/11/22 02:25:37;;;;;;;;;;;12.30;99.90;;;;;;5012102;28;19909;-77
2021/11/22 02:28:04;;;;;;;;;;;12.30;99.90;;;;;;4999043;28;19914;-77
2021/11/22 02:30:32;;;;;;;;;;;12.30;99.90;;;;;;5006801;28;19944;-78
2021/11/22 02:33:02;;;;;;;;;;;12.30;99.90;;;;;;5010791;28;20370;-78
2021/11/22 02:35:28;;;;;;;;;;;12.20;99.90;;;;;;5021712;28;19971;-78
2021/11/22 02:37:54;;;;;;;;;;;12.20;99.90;;;;;;5008341;28;19929;-77
2021/11/22 02:40:20;;;;;;;;;;;12.20;99.90;;;;;;5004921;28;19913;-78
2021/11/22 02:42:46;;;;;;;;;;;12.20;99.90;;;;;;5005923;28;19925;-77
2021/11/22 02:45:24;;;;;;;;;;;12.20;99.90;;;;;;5004794;28;19944;-77
2021/11/22 02:47:53;;;;;;;;;;;12.30;99.90;;;;;;5008158;28;19994;-78
2021/11/22 02:50:19;;;;;;;;;;;12.30;99.90;;;;;;5006830;28;19921;-76
2021/11/22 02:52:46;;;;;;;;;;;12.30;99.90;;;;;;5009872;28;20382;-78
2021/11/22 02:55:13;;;;;;;;;;;12.40;99.90;;;;;;5008651;28;19925;-78
2021/11/22 02:57:39;;;;;;;;;;;12.50;99.90;;;;;;5005839;28;19971;-78
2021/11/22 03:00:10;;;;;;;;;;;12.40;99.90;;;;;;5009564;28;19914;-78
2021/11/22 03:02:37;;;;;;;;;;;12.40;99.90;;;;;;5007796;28;19944;-78
2021/11/22 03:05:03;;;;;;;;;;;12.40;99.90;;;;;;5008994;28;20374;-77
2021/11/22 03:07:29;;;;;;;;;;;12.40;99.90;;;;;;5005036;28;19917;-76
2021/11/22 03:09:54;;;;;;;;;;;12.40;99.90;;;;;;5008086;28;20542;-76
2021/11/22 03:12:20;;;;;;;;;;;12.50;99.90;;;;;;5009449;28;19924;-77
2021/11/22 03:14:46;;;;;;;;;;;12.50;99.90;;;;;;5006953;28;19914;-77
2021/11/22 03:17:11;;;;;;;;;;;12.50;99.90;;;;;;5005964;28;20008;-77
2021/11/22 03:19:37;;;;;;;;;;;12.50;99.90;;;;;;5003525;28;20085;-77
2021/11/22 03:22:03;;;;;;;;;;;12.50;99.90;;;;;;5007366;28;19932;-77
2021/11/22 03:24:29;;;;;;;;;;;12.50;99.90;;;;;;5006484;28;20075;-76
2021/11/22 03:26:54;;;;;;;;;;;12.50;99.90;;;;;;5004825;28;20000;-77
2021/11/22 03:29:20;;;;;;;;;;;12.50;99.90;;;;;;5006566;28;19918;-77
2021/11/22 03:31:46;;;;;;;;;;;12.50;99.90;;;;;;5004893;28;20381;-76
2021/11/22 03:34:13;;;;;;;;;;;12.50;99.90;;;;;;5006180;28;19917;-77
2021/11/22 03:36:40;;;;;;;;;;;12.60;99.90;;;;;;5005788;28;19948;-77
2021/11/22 03:39:10;;;;;;;;;;;12.50;99.90;;;;;;5012380;28;20559;-77
2021/11/22 03:41:36;;;;;;;;;;;12.60;99.90;;;;;;5014176;28;19936;-77
2021/11/22 03:44:24;;;;;;;;;;;12.60;99.90;;;;;;5012984;28;19914;-77
2021/11/22 03:46:50;;;;;;;;;;;12.70;99.90;;;;;;5006793;28;20286;-77
2021/11/22 03:49:16;;;;;;;;;;;12.70;99.90;;;;;;5012176;28;20332;-77
2021/11/22 03:51:41;;;;;;;;;;;12.70;99.90;;;;;;5011222;28;19910;-77
2021/11/22 03:54:07;;;;;;;;;;;12.60;99.90;;;;;;5011326;28;19924;-77
2021/11/22 03:56:33;;;;;;;;;;;12.60;99.90;;;;;;5021041;28;20012;-77
2021/11/22 03:58:58;;;;;;;;;;;12.70;99.90;;;;;;5009336;28;19921;-77
2021/11/22 04:01:24;;;;;;;;;;;12.60;99.90;;;;;;5005177;28;19922;-77
2021/11/22 04:03:49;;;;;;;;;;;12.50;99.90;;;;;;5010430;28;19922;-77
2021/11/22 04:06:15;;;;;;;;;;;12.50;99.90;;;;;;5007217;28;19922;-77
2021/11/22 04:08:41;;;;;;;;;;;12.50;99.90;;;;;;5027530;28;20359;-77
2021/11/22 04:11:07;;;;;;;;;;;12.50;99.90;;;;;;5014034;28;20365;-77
2021/11/22 04:13:33;;;;;;;;;;;12.50;99.90;;;;;;5014401;28;19928;-77
2021/11/22 04:16:00;;;;;;;;;;;12.70;99.90;;;;;;5011150;28;19944;-77
2021/11/22 04:18:26;;;;;;;;;;;12.70;99.90;;;;;;5013642;28;19964;-77
2021/11/22 04:20:51;;;;;;;;;;;12.70;99.90;;;;;;5006233;28;19956;-77
2021/11/22 04:23:17;;;;;;;;;;;12.60;99.90;;;;;;5016311;28;19917;-77
2021/11/22 04:25:43;;;;;;;;;;;12.60;99.90;;;;;;5032669;28;19913;-77
2021/11/22 04:28:10;;;;;;;;;;;12.60;99.90;;;;;;5004362;28;19980;-76
2021/11/22 04:30:37;;;;;;;;;;;12.70;99.90;;;;;;5008140;28;20382;-76
2021/11/22 04:33:03;;;;;;;;;;;12.60;99.90;;;;;;5014264;28;19914;-77
2021/11/22 04:35:28;;;;;;;;;;;12.70;99.90;;;;;;5019311;28;19914;-77
2021/11/22 04:37:54;;;;;;;;;;;12.70;99.90;;;;;;5019123;28;19913;-77
2021/11/22 04:40:19;;;;;;;;;;;12.60;99.90;;;;;;5014594;28;20059;-75
2021/11/22 04:42:47;;;;;;;;;;;12.60;99.90;;;;;;5008697;28;19918;-76
2021/11/22 04:45:14;;;;;;;;;;;12.50;99.90;;;;;;5010229;28;19917;-76
2021/11/22 04:47:39;;;;;;;;;;;12.40;99.90;;;;;;5004732;28;19952;-76
2021/11/22 04:50:05;;;;;;;;;;;12.40;99.90;;;;;;5008702;28;20296;-78
2021/11/22 04:52:31;;;;;;;;;;;12.40;99.90;;;;;;5008344;28;20437;-76
2021/11/22 04:54:56;;;;;;;;;;;12.40;99.90;;;;;;5006935;28;19914;-75
2021/11/22 04:57:22;;;;;;;;;;;12.30;99.90;;;;;;5010254;28;19914;-78
2021/11/22 04:59:47;;;;;;;;;;;12.30;99.90;;;;;;5012502;28;19913;-76
2021/11/22 05:02:13;;;;;;;;;;;12.50;99.90;;;;;;5008884;28;19913;-76
2021/11/22 05:04:39;;;;;;;;;;;12.60;99.90;;;;;;5009658;28;20311;-76
2021/11/22 05:07:04;;;;;;;;;;;12.60;99.90;;;;;;5007596;28;19921;-76
2021/11/22 05:09:30;;;;;;;;;;;12.60;99.90;;;;;;5009713;28;19920;-76
2021/11/22 05:11:56;;;;;;;;;;;12.60;99.90;;;;;;5005300;28;20352;-77
2021/11/22 05:14:21;;;;;;;;;;;12.60;99.90;;;;;;5010838;28;19917;-76
2021/11/22 05:16:47;;;;;;;;;;;12.60;99.90;;;;;;5007569;28;20423;-76
2021/11/22 05:19:13;;;;;;;;;;;12.60;99.90;;;;;;5008846;28;19964;-76
2021/11/22 05:21:39;;;;;;;;;;;12.50;99.90;;;;;;5014438;28;19925;-76
2021/11/22 05:24:05;;;;;;;;;;;12.60;99.90;;;;;;5008776;28;20379;-76
2021/11/22 05:26:31;;;;;;;;;;;12.50;99.90;;;;;;5011963;28;19922;-77
2021/11/22 05:29:01;;;;;;;;;;;12.60;99.90;;;;;;5007972;28;19973;-77
2021/11/22 05:31:27;;;;;;;;;;;12.50;99.90;;;;;;5008118;28;19940;-76
2021/11/22 05:33:53;;;;;;;;;;;12.50;99.90;;;;;;5008533;28;19918;-76
2021/11/22 05:36:18;;;;;;;;;;;12.50;99.90;;;;;;5008987;28;19924;-77
2021/11/22 05:38:44;;;;;;;;;;;12.50;99.90;;;;;;5008673;28;20036;-76
2021/11/22 05:41:10;;;;;;;;;;;12.50;99.90;;;;;;5009467;28;19920;-76
2021/11/22 05:43:36;;;;;;;;;;;12.60;99.90;;;;;;5007682;28;19973;-76
2021/11/22 05:46:05;;;;;;;;;;;12.60;99.90;;;;;;5012365;28;20388;-76
2021/11/22 05:48:31;;;;;;;;;;;12.60;99.90;;;;;;5007996;28;19914;-77
2021/11/22 05:50:57;;;;;;;;;;;12.50;99.90;;;;;;5007318;28;19921;-77
2021/11/22 05:53:23;;;;;;;;;;;12.50;99.90;;;;;;5004589;28;19914;-77
2021/11/22 05:55:51;;;;;;;;;;;12.50;99.90;;;;;;5011093;28;20190;-77
2021/11/22 05:58:18;;;;;;;;;;;12.50;99.90;;;;;;5002828;28;19964;-77
2021/11/22 06:00:44;;;;;;;;;;;12.50;99.90;;;;;;5010278;28;20065;-77
2021/11/22 06:03:10;;;;;;;;;;;12.50;99.90;;;;;;5009764;28;19963;-77
2021/11/22 06:05:36;;;;;;;;;;;12.40;99.90;;;;;;5004580;28;19920;-77
2021/11/22 06:08:02;;;;;;;;;;;12.40;99.90;;;;;;5001727;28;19913;-77
2021/11/22 06:10:27;;;;;;;;;;;12.40;99.90;;;;;;5011928;28;19936;-76
2021/11/22 06:12:53;;;;;;;;;;;12.40;99.90;;;;;;5007648;28;20359;-79
2021/11/22 06:15:19;;;;;;;;;;;12.40;99.90;;;;;;5008840;28;19924;-77
2021/11/22 06:17:45;;;;;;;;;;;12.30;99.90;;;;;;5020977;28;20299;-77
2021/11/22 06:20:11;;;;;;;;;;;12.30;99.90;;;;;;5008313;28;19921;-77
2021/11/22 06:22:37;;;;;;;;;;;12.30;99.90;;;;;;5007469;28;19988;-77
2021/11/22 06:25:03;;;;;;;;;;;12.30;99.90;;;;;;5000480;28;19918;-76
2021/11/22 06:27:28;;;;;;;;;;;12.30;99.90;;;;;;5004797;28;19959;-76
2021/11/22 06:29:54;;;;;;;;;;;12.30;99.90;;;;;;5011747;28;19913;-77
2021/11/22 06:32:21;;;;;;;;;;;12.40;99.90;;;;;;5006075;28;19917;-77
2021/11/22 06:34:47;;;;;;;;;;;12.40;99.90;;;;;;5009515;28;20386;-77
2021/11/22 06:37:13;;;;;;;;;;;12.40;99.90;;;;;;5026180;28;19922;-78
2021/11/22 06:39:39;;;;;;;;;;;12.30;99.90;;;;;;5006863;28;19925;-76
2021/11/22 06:42:06;;;;;;;;;;;12.30;99.90;;;;;;5007120;28;19917;-76
2021/11/22 06:44:32;;;;;;;;;;;12.40;99.90;;;;;;5010496;28;19993;-77
2021/11/22 06:46:57;;;;;;;;;;;12.40;99.90;;;;;;5007737;28;19936;-77
2021/11/22 06:49:23;;;;;;;;;;;12.40;99.90;;;;;;5009047;28;19948;-77
2021/11/22 06:51:48;;;;;;;;;;;12.40;99.90;;;;;;5009397;28;19940;-78
2021/11/22 06:54:14;;;;;;;;;;;12.50;99.90;;;;;;5009588;28;19933;-77
2021/11/22 06:56:40;;;;;;;;;;;12.50;99.90;;;;;;5004932;28;19922;-77
2021/11/22 06:59:06;;;;;;;;;;;12.50;99.90;;;;;;5008267;28;20450;-77
2021/11/22 07:01:31;;;;;;;;;;;12.60;99.90;;;;;;5014827;28;19914;-75
2021/11/22 07:03:57;;;;;;;;;;;12.70;99.90;;;;;;5008432;28;20420;-77
2021/11/22 07:06:23;;;;;;;;;;;12.70;99.90;;;;;;5023266;28;19914;-77
2021/11/22 07:08:48;;;;;;;;;;;12.70;99.90;;;;;;5006053;28;19913;-78
2021/11/22 07:11:14;;;;;;;;;;;12.60;99.90;;;;;;5010513;28;19913;-77
2021/11/22 07:13:40;;;;;;;;;;;12.60;99.90;;;;;;5012598;28;20014;-77
2021/11/22 07:16:05;;;;;;;;;;;12.60;99.90;;;;;;5014161;28;19910;-77
2021/11/22 07:18:31;;;;;;;;;;;12.60;99.90;;;;;;5012447;28;20041;-77
2021/11/22 07:20:57;;;;;;;;;;;12.70;99.90;;;;;;5005238;28;19910;-76
2021/11/22 07:23:25;;;;;;;;;;;12.70;99.90;;;;;;5009532;28;19924;-77
2021/11/22 07:25:54;;;;;;;;;;;12.80;99.90;;;;;;5012012;28;19909;-77
2021/11/22 07:28:20;;;;;;;;;;;12.90;99.90;;;;;;5008911;28;19917;-76
2021/11/22 07:30:46;;;;;;;;;;;12.90;99.90;;;;;;5014315;28;20522;-76
2021/11/22 07:33:12;;;;;;;;;;;12.90;99.90;;;;;;5026865;28;19936;-77
2021/11/22 07:35:38;;;;;;;;;;;13.10;99.90;;;;;;5009300;28;19913;-76
2021/11/22 07:38:04;;;;;;;;;;;13.10;99.90;;;;;;5008945;28;19916;-76
2021/11/22 07:40:29;;;;;;;;;;;13.00;99.90;;;;;;5012253;28;19925;-77
2021/11/22 07:42:55;;;;;;;;;;;13.00;99.90;;;;;;5010148;28;20271;-76
2021/11/22 07:45:21;;;;;;;;;;;13.00;99.90;;;;;;5011025;28;19920;-76
2021/11/22 07:47:47;;;;;;;;;;;13.00;99.90;;;;;;5007436;28;19917;-76
2021/11/22 07:50:13;;;;;;;;;;;13.00;99.90;;;;;;5010792;28;19921;-76
2021/11/22 07:52:38;;;;;;;;;;;13.20;99.90;;;;;;5009081;28;19913;-77
2021/11/22 07:55:04;;;;;;;;;;;13.40;99.90;;;;;;5010009;28;20009;-76
2021/11/22 07:57:30;;;;;;;;;;;13.60;99.90;;;;;;5010577;28;20370;-76
2021/11/22 07:59:56;;;;;;;;;;;13.70;99.90;;;;;;5007622;28;19915;-76
2021/11/22 08:02:22;;;;;;;;;;;13.80;99.90;;;;;;5006304;28;19917;-77
2021/11/22 08:04:47;;;;;;;;;;;13.90;99.90;;;;;;5009450;28;19914;-78
2021/11/22 08:07:21;;;;;;;;;;;14.00;99.90;;;;;;5021156;28;20363;-77
2021/11/22 08:10:05;;;;;;;;;;;14.00;99.90;;;;;;5019853;28;19928;-76
2021/11/22 08:12:32;;;;;;;;;;;14.10;99.90;;;;;;5017605;28;20012;-77
2021/11/22 08:15:03;;;;;;;;;;;14.10;99.90;;;;;;5003697;28;19953;-66
2021/11/22 08:17:30;;;;;;;;;;;14.20;99.90;;;;;;5009644;28;20001;-66
2021/11/22 08:19:57;;;;;;;;;;;14.00;99.90;;;;;;5009810;28;19984;-68
2021/11/22 08:22:23;;;;;;;;;;;13.80;99.90;;;;;;5007574;28;19959;-68
2021/11/22 08:24:51;;;;;;;;;;;13.80;99.90;;;;;;5009868;28;20393;-69
2021/11/22 08:27:18;;;;;;;;;;;13.70;99.90;;;;;;5012563;28;20367;-66
2021/11/22 08:29:43;;;;;;;;;;;13.70;99.90;;;;;;5004101;28;19917;-70
2021/11/22 08:32:09;;;;;;;;;;;13.70;99.90;;;;;;4999865;28;19924;-68
2021/11/22 08:34:35;;;;;;;;;;;13.70;99.90;;;;;;5001447;28;19914;-67
2021/11/22 08:37:00;;;;;;;;;;;13.80;99.90;;;;;;5004583;28;19913;-68
2021/11/22 08:39:26;;;;;;;;;;;13.90;99.90;;;;;;5002628;28;19921;-71
2021/11/22 08:41:51;;;;;;;;;;;14.00;99.90;;;;;;5000858;28;19913;-71
2021/11/22 08:44:17;;;;;;;;;;;14.10;99.90;;;;;;5003769;28;20558;-68
2021/11/22 08:46:43;;;;;;;;;;;14.10;99.90;;;;;;5006208;28;19937;-68
2021/11/22 08:49:08;;;;;;;;;;;14.20;99.90;;;;;;5022989;28;19968;-67
2021/11/22 08:51:35;;;;;;;;;;;14.30;99.90;;;;;;5006814;28;19929;-68
2021/11/22 08:54:00;;;;;;;;;;;14.40;99.90;;;;;;5002784;28;20036;-68
2021/11/22 08:56:26;;;;;;;;;;;14.40;99.90;;;;;;5008002;28;20020;-67
2021/11/22 08:58:51;;;;;;;;;;;14.40;99.90;;;;;;5001992;28;20020;-67
2021/11/22 09:01:17;;;;;;;;;;;14.50;99.90;;;;;;5003978;28;19956;-67
2021/11/22 09:03:43;;;;;;;;;;;14.60;99.90;;;;;;5003531;28;19964;-69
2021/11/22 09:06:08;;;;;;;;;;;14.70;99.90;;;;;;5000894;28;20100;-69
2021/11/22 09:08:34;;;;;;;;;;;14.70;99.90;;;;;;5003718;28;19913;-69
2021/11/22 09:11:00;;;;;;;;;;;14.80;99.90;;;;;;5006474;28;19913;-69
2021/11/22 09:13:25;;;;;;;;;;;14.90;99.90;;;;;;5007712;28;20377;-69
2021/11/22 09:15:51;;;;;;;;;;;15.00;99.90;;;;;;5010590;28;19949;-69
2021/11/22 09:18:16;;;;;;;;;;;15.00;99.90;;;;;;5011811;28;19913;-69
2021/11/22 09:20:42;;;;;;;;;;;15.00;99.90;;;;;;5011091;28;19940;-68
2021/11/22 09:23:08;;;;;;;;;;;15.00;99.90;;;;;;5011884;28;20275;-68
2021/11/22 09:25:35;;;;;;;;;;;15.00;99.90;;;;;;5011799;28;19914;-68
2021/11/22 09:28:01;;;;;;;;;;;15.00;99.90;;;;;;5010350;28;19910;-69
2021/11/22 09:30:26;;;;;;;;;;;15.10;99.90;;;;;;5009699;28;19957;-68
2021/11/22 09:32:52;;;;;;;;;;;15.20;99.90;;;;;;5009996;28;19914;-68
2021/11/22 09:35:18;;;;;;;;;;;15.10;99.90;;;;;;5010878;28;19914;-68
2021/11/22 09:37:43;;;;;;;;;;;15.10;99.90;;;;;;5011294;28;19917;-68
2021/11/22 09:40:09;;;;;;;;;;;15.20;99.90;;;;;;5011298;28;20389;-68
2021/11/22 09:42:35;;;;;;;;;;;15.20;99.90;;;;;;5008550;28;19913;-68
2021/11/22 09:45:02;;;;;;;;;;;15.30;99.90;;;;;;4999200;28;19936;-68
2021/11/22 09:47:28;;;;;;;;;;;15.40;99.90;;;;;;5011392;28;19917;-68
2021/11/22 09:49:54;;;;;;;;;;;15.70;99.90;;;;;;5011023;28;19914;-68
2021/11/22 09:52:24;;;;;;;;;;;15.90;99.90;;;;;;5011062;28;20000;-68
2021/11/22 09:54:49;;;;;;;;;;;16.00;99.90;;;;;;5004911;28;19917;-68
2021/11/22 09:57:15;;;;;;;;;;;16.10;99.90;;;;;;5009014;28;19943;-68
2021/11/22 09:59:42;;;;;;;;;;;16.20;99.90;;;;;;5008212;28;19913;-68
2021/11/22 10:02:07;;;;;;;;;;;16.00;99.90;;;;;;5010141;28;19992;-68
2021/11/22 10:04:33;;;;;;;;;;;16.00;99.90;;;;;;5009657;28;20008;-68
2021/11/22 10:07:00;;;;;;;;;;;16.00;99.90;;;;;;5005900;28;19926;-68
2021/11/22 10:09:31;;;;;;;;;;;15.80;99.90;;;;;;5009971;28;20418;-68
2021/11/22 10:11:58;;;;;;;;;;;15.70;99.90;;;;;;5006874;28;20356;-68
2021/11/22 10:14:25;;;;;;;;;;;15.50;99.90;;;;;;5005687;28;19922;-67
2021/11/22 10:16:50;;;;;;;;;;;15.50;99.90;;;;;;5004124;28;19914;-68
2021/11/22 10:19:18;;;;;;;;;;;15.70;99.90;;;;;;5010225;28;19976;-68
2021/11/22 10:21:44;;;;;;;;;;;15.80;99.90;;;;;;5005281;28;19914;-68
2021/11/22 10:24:11;;;;;;;;;;;16.00;99.90;;;;;;5007084;28;19943;-68
2021/11/22 10:26:38;;;;;;;;;;;16.10;99.90;;;;;;5004434;28;19913;-67
2021/11/22 10:29:04;;;;;;;;;;;16.00;99.90;;;;;;5007248;28;19913;-67
2021/11/22 10:31:29;;;;;;;;;;;15.80;99.90;;;;;;5008291;28;19963;-67
2021/11/22 10:34:00;;;;;;;;;;;15.70;99.90;;;;;;5006233;28;20344;-68
2021/11/22 10:36:28;;;;;;;;;;;15.60;99.90;;;;;;5007774;28;19968;-67
2021/11/22 10:38:57;;;;;;;;;;;15.50;99.90;;;;;;5008530;28;19921;-67
2021/11/22 10:41:49;;;;;;;;;;;15.50;99.90;;;;;;5007194;28;20329;-67
2021/11/22 10:44:15;;;;;;;;;;;15.60;99.90;;;;;;5001396;28;20361;-68
2021/11/22 10:46:47;;;;;;;;;;;15.60;99.90;;;;;;5006875;28;19933;-69
2021/11/22 10:49:16;;;;;;;;;;;15.60;99.90;;;;;;5012058;28;19910;-68
2021/11/22 10:51:46;;;;;;;;;;;15.70;99.90;;;;;;5009233;28;19921;-68
2021/11/22 10:54:17;;;;;;;;;;;15.80;99.90;;;;;;5001599;28;20012;-68
2021/11/22 10:56:47;;;;;;;;;;;15.80;99.90;;;;;;5006904;28;19913;-68
2021/11/22 10:59:13;;;;;;;;;;;15.70;99.90;;;;;;5009307;28;19913;-68
2021/11/22 11:01:57;;;;;;;;;;;15.70;99.90;;;;;;5008592;28;20375;-68
2021/11/22 11:04:27;;;;;;;;;;;15.80;99.90;;;;;;5001671;28;20394;-67
2021/11/22 11:06:55;;;;;;;;;;;15.80;99.90;;;;;;5007674;28;19913;-67
2021/11/22 11:09:31;;;;;;;;;;;15.70;99.90;;;;;;5009472;28;19917;-67
2021/11/22 11:12:24;;;;;;;;;;;15.60;99.90;;;;;;5006606;28;20259;-67
2021/11/22 11:14:51;;;;;;;;;;;15.60;99.90;;;;;;5009229;28;19913;-67
2021/11/22 11:17:22;;;;;;;;;;;15.60;99.90;;;;;;5008991;28;19921;-67
2021/11/22 11:19:50;;;;;;;;;;;15.50;99.90;;;;;;5010236;28;19909;-69
2021/11/22 11:22:16;;;;;;;;;;;15.40;99.90;;;;;;5006356;28;20038;-67
2021/11/22 11:24:42;;;;;;;;;;;15.30;99.90;;;;;;5011314;28;19975;-68
2021/11/22 11:27:08;;;;;;;;;;;15.30;99.90;;;;;;5005343;28;19913;-69
2021/11/22 11:29:34;;;;;;;;;;;15.30;99.90;;;;;;5007763;28;19914;-68
2021/11/22 11:32:00;;;;;;;;;;;15.30;99.90;;;;;;5011412;28;19983;-69
2021/11/22 11:34:30;;;;;;;;;;;15.40;99.90;;;;;;5011976;28;19913;-68
2021/11/22 11:36:55;;;;;;;;;;;15.40;99.90;;;;;;5008595;28;19921;-69
2021/11/22 11:39:33;;;;;;;;;;;15.50;99.90;;;;;;5010323;28;19916;-69
2021/11/22 11:42:10;;;;;;;;;;;15.50;99.90;;;;;;5012001;28;20382;-68
2021/11/22 11:44:36;;;;;;;;;;;15.40;99.90;;;;;;5009324;28;20272;-68
2021/11/22 11:47:32;;;;;;;;;;;15.50;99.90;;;;;;5009686;28;19920;-70
2021/11/22 11:49:57;;;;;;;;;;;15.30;99.90;;;;;;5006006;28;20004;-68
2021/11/22 11:52:23;;;;;;;;;;;15.20;99.90;;;;;;5010662;28;19929;-69
2021/11/22 11:54:49;;;;;;;;;;;15.30;99.90;;;;;;5010212;28;20423;-68
2021/11/22 11:57:19;;;;;;;;;;;15.30;99.90;;;;;;5012158;28;19949;-67
2021/11/22 11:59:45;;;;;;;;;;;15.30;99.90;;;;;;5013581;28;20282;-68
2021/11/22 12:02:11;;;;;;;;;;;15.10;99.90;;;;;;5014577;28;19936;-67
2021/11/22 12:04:54;;;;;;;;;;;15.10;99.90;;;;;;5014163;28;19917;-67
2021/11/22 12:07:31;;;;;;;;;;;15.10;99.90;;;;;;5012936;28;19909;-67
2021/11/22 12:10:08;;;;;;;;;;;14.90;99.90;;;;;;5007276;28;19984;-68
2021/11/22 12:12:35;;;;;;;;;;;14.80;99.90;;;;;;5013280;28;20434;-68
2021/11/22 12:15:13;;;;;;;;;;;14.70;99.90;;;;;;5013476;28;20036;-67
2021/11/22 12:17:39;;;;;;;;;;;14.70;99.90;;;;;;5013722;28;19949;-68
2021/11/22 12:20:07;;;;;;;;;;;14.40;99.90;;;;;;5012615;28;19962;-67
2021/11/22 12:22:36;;;;;;;;;;;14.20;99.90;;;;;;5012419;28;19909;-67
2021/11/22 12:25:03;;;;;;;;;;;14.00;99.90;;;;;;5013361;28;19914;-67
2021/11/22 12:27:33;;;;;;;;;;;14.00;99.90;;;;;;5009471;28;19925;-68
2021/11/22 12:29:59;;;;;;;;;;;14.00;99.90;;;;;;4993688;28;19996;-67
2021/11/22 12:32:26;;;;;;;;;;;14.10;99.90;;;;;;5004492;28;19913;-66
2021/11/22 12:34:58;;;;;;;;;;;14.20;99.90;;;;;;5009159;28;19914;-66
2021/11/22 12:37:25;;;;;;;;;;;14.20;99.90;;;;;;5012665;28;20010;-67
2021/11/22 12:39:51;;;;;;;;;;;14.10;99.90;;;;;;5012451;28;19921;-67
2021/11/22 12:42:18;;;;;;;;;;;14.00;99.90;;;;;;5012632;28;19913;-66
2021/11/22 12:45:04;;;;;;;;;;;13.90;99.90;;;;;;4997908;28;20375;-66
2021/11/22 12:47:30;;;;;;;;;;;13.80;99.90;;;;;;5006271;28;19913;-68
2021/11/22 12:50:14;;;;;;;;;;;13.80;99.90;;;;;;5010883;28;19913;-67
2021/11/22 12:52:40;;;;;;;;;;;13.90;99.90;;;;;;5012066;28;20028;-67
2021/11/22 12:55:13;;;;;;;;;;;13.90;99.90;;;;;;5012718;28;19956;-67
2021/11/22 12:57:41;;;;;;;;;;;14.00;99.90;;;;;;5005425;28;19929;-66
2021/11/22 13:00:08;;;;;;;;;;;14.00;99.90;;;;;;5012253;28;19920;-66
2021/11/22 13:03:02;;;;;;;;;;;14.00;99.90;;;;;;5011661;28;20032;-66
2021/11/22 13:05:40;;;;;;;;;;;14.00;99.90;;;;;;5007971;28;19913;-66
2021/11/22 13:08:05;;;;;;;;;;;14.10;99.90;;;;;;5008885;28;19913;-66
2021/11/22 13:10:40;;;;;;;;;;;14.10;99.90;;;;;;5010631;28;19985;-66
2021/11/22 13:13:11;;;;;;;;;;;14.20;99.90;;;;;;5011527;28;20383;-66
2021/11/22 13:15:59;;;;;;;;;;;14.10;99.90;;;;;;5012347;28;20481;-66
2021/11/22 13:18:32;;;;;;;;;;;14.10;99.90;;;;;;5012513;28;19909;-66
2021/11/22 13:20:59;;;;;;;;;;;14.00;99.90;;;;;;5007285;28;20012;-67
2021/11/22 13:23:26;;;;;;;;;;;13.90;99.90;;;;;;5009299;28;20457;-65
2021/11/22 13:25:53;;;;;;;;;;;14.00;99.90;;;;;;5008908;28;20000;-66
2021/11/22 13:28:22;;;;;;;;;;;13.80;99.90;;;;;;5011369;28;20393;-66
2021/11/22 13:30:48;;;;;;;;;;;13.60;99.90;;;;;;5007461;28;19909;-68
2021/11/22 13:33:14;;;;;;;;;;;13.50;99.90;;;;;;5009686;28;19914;-67
2021/11/22 13:35:41;;;;;;;;;;;13.50;99.90;;;;;;5011972;28;20291;-66
2021/11/22 13:38:11;;;;;;;;;;;13.30;99.90;;;;;;5010778;28;20389;-66
2021/11/22 13:40:45;;;;;;;;;;;13.30;99.90;;;;;;5011681;28;19956;-67
2021/11/22 13:43:11;;;;;;;;;;;13.20;99.90;;;;;;5012205;28;19919;-66
2021/11/22 13:45:38;;;;;;;;;;;13.30;99.90;;;;;;5011865;28;20306;-67
2021/11/22 13:48:04;;;;;;;;;;;13.10;99.90;;;;;;5011297;28;19913;-67
2021/11/22 13:50:46;;;;;;;;;;;13.00;99.90;;;;;;5010480;28;20020;-68
2021/11/22 13:53:13;;;;;;;;;;;13.00;99.90;;;;;;5010301;28;19948;-68
2021/11/22 13:55:40;;;;;;;;;;;13.10;99.90;;;;;;5010070;28;19917;-67
2021/11/22 13:58:12;;;;;;;;;;;13.10;99.90;;;;;;5010636;28;20036;-68
2021/11/22 14:00:37;;;;;;;;;;;13.00;99.90;;;;;;5010819;28;20044;-68
2021/11/22 14:03:03;;;;;;;;;;;13.00;99.90;;;;;;5010120;28;19921;-68
2021/11/22 14:05:31;;;;;;;;;;;12.90;99.90;;;;;;5008857;28;20497;-67
2021/11/22 14:07:59;;;;;;;;;;;12.70;99.90;;;;;;5009339;28;19917;-71
2021/11/22 14:10:28;;;;;;;;;;;12.70;99.90;;;;;;5005445;28;20376;-68
2021/11/22 14:13:05;;;;;;;;;;;12.70;99.90;;;;;;5006350;28;19965;-68
2021/11/22 14:15:34;;;;;;;;;;;12.50;99.90;;;;;;5007742;28;19920;-67
2021/11/22 14:18:01;;;;;;;;;;;12.50;99.90;;;;;;5007032;28;20024;-66